Time;durP1;ratioP1;P1;durP2;ratioP2;P2;SDS_P1;SDS_P2;PMS_P1;PMS_P2;Temp;Humidity;BMP_temperature;BMP_pressure;BME280_temperature;BME280_humidity;BME280_pressure;Samples;Min_cycle;Max_cycle;Signal;HPM_P1;HPM_P2
2022/01/10 00:01:44;;;;;;;16.45;7.90;;;;;;;4.34;89.94;99858.88;4995170;28;20064;-76
2022/01/10 00:04:09;;;;;;;12.00;7.55;;;;;;;4.33;90.34;99861.50;5015144;28;20033;-76
2022/01/10 00:06:35;;;;;;;14.52;8.35;;;;;;;4.35;90.59;99868.47;5014714;28;20037;-77
2022/01/10 00:09:01;;;;;;;14.57;8.00;;;;;;;4.37;90.45;99869.34;5014202;28;20045;-77
2022/01/10 00:11:26;;;;;;;15.35;7.88;;;;;;;4.38;90.21;99873.72;5014385;28;20029;-77
2022/01/10 00:13:52;;;;;;;14.88;8.55;;;;;;;4.31;90.18;99879.75;5014451;28;20480;-76
2022/01/10 00:16:17;;;;;;;16.30;8.63;;;;;;;4.37;90.73;99871.97;5013006;28;20117;-77
2022/01/10 00:18:43;;;;;;;14.20;8.10;;;;;;;4.36;90.46;99885.03;5014568;28;20490;-76
2022/01/10 00:21:08;;;;;;;12.02;7.68;;;;;;;4.36;90.06;99887.63;5013363;28;20041;-76
2022/01/10 00:23:34;;;;;;;15.48;7.97;;;;;;;4.34;90.17;99898.06;5013637;28;20042;-76
2022/01/10 00:26:00;;;;;;;15.40;8.60;;;;;;;4.29;90.38;99897.16;5013267;28;20041;-76
2022/01/10 00:28:26;;;;;;;15.02;7.78;;;;;;;4.29;89.97;99897.16;5013245;28;20076;-76
2022/01/10 00:30:51;;;;;;;16.55;8.10;;;;;;;4.31;89.38;99900.66;5012378;28;20444;-76
2022/01/10 00:33:16;;;;;;;15.00;7.65;;;;;;;4.34;89.85;99905.03;5009976;28;20536;-76
2022/01/10 00:35:42;;;;;;;16.67;8.68;;;;;;;4.31;89.83;99910.22;5012966;28;20242;-76
2022/01/10 00:38:07;;;;;;;14.05;7.43;;;;;;;4.34;89.57;99920.72;5022321;28;20065;-76
2022/01/10 00:40:33;;;;;;;12.52;6.90;;;;;;;4.39;89.46;99921.63;5012828;28;20451;-76
2022/01/10 00:42:58;;;;;;;12.85;6.65;;;;;;;4.35;89.22;99932.94;5011912;28;20041;-76
2022/01/10 00:45:26;;;;;;;13.43;7.93;;;;;;;4.28;89.57;99931.97;5012843;28;20061;-76
2022/01/10 00:47:56;;;;;;;15.50;8.55;;;;;;;4.29;89.69;99925.88;5011845;28;20099;-76
2022/01/10 00:50:24;;;;;;;18.92;8.13;;;;;;;4.32;89.58;99933.78;5011886;28;20034;-75
2022/01/10 00:52:50;;;;;;;11.63;7.88;;;;;;;4.29;89.67;99938.06;5011728;28;20072;-76
2022/01/10 00:55:15;;;;;;;11.68;7.25;;;;;;;4.31;89.06;99952.91;5012728;28;20496;-76
2022/01/10 00:57:41;;;;;;;15.27;8.02;;;;;;;4.27;89.33;99951.13;5012923;28;20033;-76
2022/01/10 01:00:10;;;;;;;14.75;7.63;;;;;;;4.27;89.25;99958.97;5012826;28;20049;-76
2022/01/10 01:02:35;;;;;;;13.05;7.70;;;;;;;4.21;89.28;99964.13;5011591;28;20029;-76
2022/01/10 01:05:05;;;;;;;14.48;8.15;;;;;;;4.24;89.43;99965.88;5012556;28;20566;-76
2022/01/10 01:07:31;;;;;;;13.35;7.70;;;;;;;4.24;88.92;99966.75;5012793;28;20034;-76
2022/01/10 01:10:03;;;;;;;14.07;8.07;;;;;;;4.26;89.43;99975.50;5011070;28;20092;-75
2022/01/10 01:12:50;;;;;;;12.73;8.43;;;;;;;4.22;89.33;99976.34;5011419;28;20496;-76
2022/01/10 01:18:17;;;;;;;12.82;8.30;;;;;;;4.21;89.12;99991.97;5007769;28;20489;-76
2022/01/10 01:20:45;;;;;;;14.70;8.60;;;;;;;4.20;89.43;99993.72;5008178;28;20042;-76
2022/01/10 01:26:02;;;;;;;15.85;9.15;;;;;;;4.21;89.46;99995.47;5012282;28;20112;-76
2022/01/10 01:28:28;;;;;;;11.20;8.00;;;;;;;4.24;88.93;100005.94;5012427;28;20049;-76
2022/01/10 01:30:54;;;;;;;13.70;8.02;;;;;;;4.27;89.13;100007.69;5012429;28;20124;-76
2022/01/10 01:33:20;;;;;;;15.02;8.32;;;;;;;4.19;89.20;100015.44;5012131;28;20500;-76
2022/01/10 01:35:47;;;;;;;13.00;8.25;;;;;;;4.20;88.77;100008.53;5012069;28;20049;-76
2022/01/10 01:38:12;;;;;;;14.43;7.90;;;;;;;4.21;89.33;100023.31;5019274;28;20566;-76
2022/01/10 01:40:45;;;;;;;13.70;9.13;;;;;;;4.29;89.05;100026.88;5010911;28;20038;-76
2022/01/10 01:43:10;;;;;;;18.35;9.90;;;;;;;4.37;89.46;100033.94;5010289;28;20112;-75
2022/01/10 01:45:45;;;;;;;16.85;10.43;;;;;;;4.43;88.52;100041.00;4994121;28;20221;-76
2022/01/10 01:48:11;;;;;;;13.40;7.82;;;;;;;4.48;88.81;100035.78;5010760;28;20512;-76
2022/01/10 01:50:37;;;;;;;16.13;8.90;;;;;;;4.53;88.72;100041.94;5010389;28;20526;-76
2022/01/10 01:53:04;;;;;;;14.68;8.23;;;;;;;4.52;88.79;100040.22;5010456;28;20021;-76
2022/01/10 01:55:29;;;;;;;17.50;9.55;;;;;;;4.54;88.77;100043.72;4992657;28;20030;-75
2022/01/10 01:57:56;;;;;;;17.30;9.77;;;;;;;4.50;88.06;100047.16;5010627;28;20512;-76
2022/01/10 02:00:22;;;;;;;13.95;7.95;;;;;;;4.53;88.17;100057.63;5010604;28;20038;-76
2022/01/10 02:02:54;;;;;;;14.30;8.18;;;;;;;4.48;87.87;100059.31;5010529;28;20112;-76
2022/01/10 02:05:22;;;;;;;13.60;9.00;;;;;;;4.41;88.16;100067.97;5010609;28;20408;-76
2022/01/10 02:07:47;;;;;;;17.90;9.55;;;;;;;4.39;88.07;100067.94;5011683;28;20033;-76
2022/01/10 02:10:14;;;;;;;16.42;9.10;;;;;;;4.36;88.40;100070.53;5010542;28;20048;-76
2022/01/10 02:12:40;;;;;;;18.10;8.02;;;;;;;4.35;88.51;100074.00;5011716;28;20034;-76
2022/01/10 02:15:31;;;;;;;15.00;8.48;;;;;;;4.23;88.49;100066.88;5018456;28;20033;-76
2022/01/10 02:18:00;;;;;;;21.35;9.63;;;;;;;4.21;89.25;100076.44;5006811;28;20033;-75
2022/01/10 02:20:31;;;;;;;15.85;8.40;;;;;;;4.18;89.74;100074.66;5010369;28;20034;-76
2022/01/10 02:22:57;;;;;;;17.30;8.77;;;;;;;4.12;89.60;100077.19;5018593;28;20511;-76
2022/01/10 02:25:47;;;;;;;15.43;9.10;;;;;;;4.18;90.10;100082.50;5010155;28;20030;-76
2022/01/10 02:28:13;;;;;;;16.13;9.60;;;;;;;4.22;89.63;100093.88;5010266;28;20049;-76
2022/01/10 02:30:39;;;;;;;18.42;8.90;;;;;;;4.19;89.98;100099.03;5011503;28;20038;-76
2022/01/10 02:33:05;;;;;;;22.00;9.55;;;;;;;4.16;89.92;100110.31;5011456;28;20037;-76
2022/01/10 02:35:36;;;;;;;17.05;8.50;;;;;;;4.21;89.33;100110.38;5010008;28;20034;-76
2022/01/10 02:38:03;;;;;;;15.13;9.45;;;;;;;4.14;90.16;100116.41;5010044;28;20037;-77
2022/01/10 02:40:31;;;;;;;15.18;9.70;;;;;;;4.15;89.96;100112.94;5011399;28;20056;-76
2022/01/10 02:42:57;;;;;;;18.15;9.35;;;;;;;4.17;89.72;100119.94;5009998;28;20033;-77
2022/01/10 02:45:23;;;;;;;17.48;10.48;;;;;;;4.26;90.11;100126.13;5011112;28;20076;-76
2022/01/10 02:47:49;;;;;;;13.85;8.43;;;;;;;4.27;89.61;100131.38;5011381;28;20061;-76
2022/01/10 02:50:15;;;;;;;14.98;7.80;;;;;;;4.28;89.43;100124.41;5010067;28;20099;-76
2022/01/10 02:52:43;;;;;;;14.45;8.32;;;;;;;4.31;89.33;100127.94;5009968;28;20241;-76
2022/01/10 02:55:10;;;;;;;18.85;9.70;;;;;;;4.37;89.61;100128.00;5011008;28;20488;-76
2022/01/10 02:57:37;;;;;;;15.00;9.43;;;;;;;4.34;89.48;100127.09;5011180;28;20060;-76
2022/01/10 03:00:09;;;;;;;18.73;9.45;;;;;;;4.36;89.03;100133.22;5009978;28;20060;-76
2022/01/10 03:02:35;;;;;;;14.32;9.50;;;;;;;4.32;89.18;100144.47;5009968;28;20061;-76
2022/01/10 03:05:03;;;;;;;19.92;9.23;;;;;;;4.31;88.52;100150.56;5009503;28;20255;-76
2022/01/10 03:07:28;;;;;;;15.55;9.27;;;;;;;4.33;89.38;100151.47;5013326;28;20021;-76
2022/01/10 03:09:55;;;;;;;20.42;9.15;;;;;;;4.34;88.80;100161.94;5013943;28;20104;-76
2022/01/10 03:12:23;;;;;;;16.05;8.98;;;;;;;4.36;89.03;100155.00;5013798;28;20030;-76
2022/01/10 03:14:48;;;;;;;16.33;9.80;;;;;;;4.43;88.85;100165.53;5013343;28;20128;-76
2022/01/10 03:17:14;;;;;;;14.50;9.52;;;;;;;4.41;88.51;100167.25;5013639;28;20049;-76
2022/01/10 03:19:40;;;;;;;14.10;7.93;;;;;;;4.46;89.00;100169.06;5021618;28;20033;-76
2022/01/10 03:22:07;;;;;;;13.20;8.20;;;;;;;4.50;88.97;100172.59;5014333;28;20034;-76
2022/01/10 03:24:35;;;;;;;17.08;9.20;;;;;;;4.52;88.94;100173.50;5013018;28;20120;-75
2022/01/10 03:27:00;;;;;;;13.20;7.85;;;;;;;4.55;89.34;100181.38;5013361;28;20034;-76
2022/01/10 03:29:26;;;;;;;13.88;8.45;;;;;;;4.55;88.67;100190.06;5013090;28;20128;-76
2022/01/10 03:31:52;;;;;;;13.57;8.27;;;;;;;4.59;88.78;100193.63;5014368;28;20395;-76
2022/01/10 03:34:18;;;;;;;17.42;8.50;;;;;;;4.59;88.42;100198.84;5022025;28;20034;-76
2022/01/10 03:36:44;;;;;;;14.32;8.90;;;;;;;4.59;88.38;100207.56;5021391;28;20053;-76
2022/01/10 03:39:11;;;;;;;16.05;8.45;;;;;;;4.53;88.11;100210.13;5013502;28;20061;-76
2022/01/10 03:41:37;;;;;;;19.52;8.85;;;;;;;4.46;87.90;100207.41;5013200;28;20030;-76
2022/01/10 03:44:04;;;;;;;14.27;8.32;;;;;;;4.44;87.92;100215.19;5012709;28;20026;-76
2022/01/10 03:46:32;;;;;;;15.73;8.70;;;;;;;4.43;88.48;100218.69;5013917;28;20030;-75
2022/01/10 03:48:58;;;;;;;16.30;9.52;;;;;;;4.44;88.46;100217.81;5014184;28;20034;-76
2022/01/10 03:51:26;;;;;;;15.20;9.02;;;;;;;4.45;88.24;100231.75;5012923;28;20034;-76
2022/01/10 03:53:52;;;;;;;14.52;9.20;;;;;;;4.46;88.66;100229.16;5014118;28;20036;-76
2022/01/10 03:56:17;;;;;;;13.68;8.00;;;;;;;4.46;88.38;100238.75;5013882;28;20117;-76
2022/01/10 03:58:45;;;;;;;15.20;8.82;;;;;;;4.45;88.59;100242.19;5021296;28;20095;-76
2022/01/10 04:01:12;;;;;;;16.63;8.98;;;;;;;4.42;87.91;100250.88;5012867;28;20488;-76
2022/01/10 04:03:39;;;;;;;15.80;10.27;;;;;;;4.38;88.28;100249.09;5012457;28;20038;-77
2022/01/10 04:06:09;;;;;;;15.35;8.63;;;;;;;4.38;87.87;100260.41;5008782;28;20045;-76
2022/01/10 04:08:36;;;;;;;15.88;9.13;;;;;;;4.36;87.80;100269.97;5008680;28;20025;-76
2022/01/10 04:11:03;;;;;;;13.52;7.97;;;;;;;4.34;87.75;100274.28;5012426;28;20037;-77
2022/01/10 04:13:30;;;;;;;14.10;8.45;;;;;;;4.33;87.62;100274.28;5012521;28;20030;-77
2022/01/10 04:15:56;;;;;;;14.07;8.75;;;;;;;4.34;87.14;100282.13;5012191;28;20810;-77
2022/01/10 04:18:22;;;;;;;16.10;8.40;;;;;;;4.31;87.80;100284.69;5012209;28;20404;-76
2022/01/10 04:20:48;;;;;;;18.35;9.40;;;;;;;4.34;88.00;100281.25;5012406;28;20041;-77
2022/01/10 04:23:15;;;;;;;14.60;9.32;;;;;;;4.38;87.88;100285.69;5012294;28;20038;-77
2022/01/10 04:25:42;;;;;;;15.57;9.00;;;;;;;4.38;87.83;100297.00;5013316;28;20038;-77
2022/01/10 04:28:08;;;;;;;14.80;9.00;;;;;;;4.40;87.70;100297.00;5012114;28;20034;-76
2022/01/10 04:30:33;;;;;;;17.25;9.70;;;;;;;4.39;87.52;100296.13;5020594;28;20531;-77
2022/01/10 04:33:01;;;;;;;14.98;8.02;;;;;;;4.41;87.20;100303.13;5012178;28;20030;-77
2022/01/10 04:35:29;;;;;;;17.05;9.52;;;;;;;4.34;87.49;100305.63;5011509;28;20557;-77
2022/01/10 04:37:55;;;;;;;15.75;9.05;;;;;;;4.35;87.85;100315.25;5011695;28;20034;-76
2022/01/10 04:40:23;;;;;;;15.45;8.90;;;;;;;4.30;87.58;100310.81;5012015;28;20113;-77
2022/01/10 04:42:50;;;;;;;17.05;8.68;;;;;;;4.34;87.46;100323.03;5010051;28;20420;-77
2022/01/10 04:45:16;;;;;;;20.00;10.88;;;;;;;4.37;87.62;100321.34;5011029;28;20087;-77
2022/01/10 04:47:41;;;;;;;17.20;10.40;;;;;;;4.35;87.50;100328.31;5011824;28;20033;-77
2022/01/10 04:52:51;;;;;;;19.08;9.93;;;;;;;4.36;86.98;100337.91;5011951;28;20152;-77
2022/01/10 04:55:18;;;;;;;22.58;10.95;;;;;;;4.35;87.37;100335.28;5010146;28;20049;-76
2022/01/10 04:57:44;;;;;;;15.77;9.77;;;;;;;4.34;87.12;100344.81;5012908;28;20042;-77
2022/01/10 05:00:13;;;;;;;15.98;9.07;;;;;;;4.35;87.15;100341.38;5021245;28;20057;-77
2022/01/10 05:02:42;;;;;;;19.10;10.30;;;;;;;4.33;87.53;100345.69;4996432;28;20065;-76
2022/01/10 05:05:08;;;;;;;20.13;11.63;;;;;;;4.31;87.64;100342.16;5027985;28;20034;-78
2022/01/10 05:07:35;;;;;;;16.25;10.23;;;;;;;4.36;87.76;100358.81;5012530;28;20480;-77
2022/01/10 05:10:02;;;;;;;21.42;11.07;;;;;;;4.38;87.53;100367.53;5013139;28;20122;-77
2022/01/10 05:12:33;;;;;;;18.17;11.23;;;;;;;4.34;87.29;100370.06;5011596;28;20057;-77
2022/01/10 05:14:58;;;;;;;18.83;10.70;;;;;;;4.30;87.17;100374.38;5012850;28;20045;-77
2022/01/10 05:17:24;;;;;;;20.58;11.75;;;;;;;4.26;87.66;100375.16;5014013;28;20038;-77
2022/01/10 05:19:50;;;;;;;21.17;12.07;;;;;;;4.22;87.88;100383.84;5012439;28;20029;-78
2022/01/10 05:22:16;;;;;;;20.25;11.48;;;;;;;4.26;87.69;100385.63;5023314;28;20526;-78
2022/01/10 05:24:42;;;;;;;23.65;12.30;;;;;;;4.22;88.06;100394.28;5014669;28;20022;-78
2022/01/10 05:27:07;;;;;;;24.42;12.75;;;;;;;4.25;88.33;100399.56;5014697;28;20419;-77
2022/01/10 05:29:33;;;;;;;24.45;14.35;;;;;;;4.28;88.03;100402.22;5013265;28;20111;-78
2022/01/10 05:31:59;;;;;;;23.05;14.23;;;;;;;4.32;88.03;100400.50;5012801;28;20045;-77
2022/01/10 05:34:43;;;;;;;24.45;13.50;;;;;;;4.31;87.99;100407.47;5010056;28;20029;-78
2022/01/10 05:37:08;;;;;;;22.02;13.57;;;;;;;4.27;88.13;100416.13;5012660;28;20040;-77
2022/01/10 05:39:34;;;;;;;26.58;13.95;;;;;;;4.23;88.72;100419.53;5011528;28;20034;-78
2022/01/10 05:41:59;;;;;;;25.65;14.55;;;;;;;4.23;88.71;100427.38;5015351;28;20042;-78
2022/01/10 05:44:25;;;;;;;34.47;14.90;;;;;;;4.25;88.65;100422.19;5030517;28;20050;-78
2022/01/10 05:46:51;;;;;;;30.00;13.73;;;;;;;4.29;88.83;100426.59;5029255;28;20519;-78
2022/01/10 05:49:25;;;;;;;26.63;14.70;;;;;;;4.26;88.50;100432.66;5012443;28;20029;-76
2022/01/10 05:51:51;;;;;;;24.63;13.25;;;;;;;4.26;88.72;100430.03;5027396;28;20436;-77
2022/01/10 05:54:28;;;;;;;23.00;12.25;;;;;;;4.25;88.82;100438.75;5016337;28;20052;-77
2022/01/10 05:56:54;;;;;;;20.10;11.30;;;;;;;4.25;89.41;100437.88;5016886;28;20030;-77
2022/01/10 05:59:22;;;;;;;19.25;11.63;;;;;;;4.24;88.98;100444.78;5011862;28;20030;-78
2022/01/10 06:01:48;;;;;;;19.65;12.18;;;;;;;4.21;89.29;100457.81;5010474;28;20037;-77
2022/01/10 06:04:18;;;;;;;18.63;11.55;;;;;;;4.24;89.09;100455.25;5010336;28;20084;-77
2022/01/10 06:06:44;;;;;;;21.35;12.10;;;;;;;4.24;89.33;100460.47;5010980;28;20097;-78
2022/01/10 06:09:10;;;;;;;20.52;11.93;;;;;;;4.25;89.05;100470.09;5008747;28;20125;-77
2022/01/10 06:11:36;;;;;;;21.95;12.43;;;;;;;4.27;89.24;100478.84;5006830;28;20500;-77
2022/01/10 06:14:02;;;;;;;19.83;11.82;;;;;;;4.27;88.84;100486.69;5010737;28;20034;-77
2022/01/10 06:16:28;;;;;;;21.35;12.38;;;;;;;4.21;89.46;100489.16;5010832;28;20053;-77
2022/01/10 06:18:54;;;;;;;25.23;13.25;;;;;;;4.16;89.62;100496.03;5010775;28;20109;-77
2022/01/10 06:21:20;;;;;;;22.50;12.48;;;;;;;4.21;89.71;100499.59;5010659;28;20559;-77
2022/01/10 06:23:45;;;;;;;25.08;14.02;;;;;;;4.23;89.34;100510.09;5010614;28;20037;-77
2022/01/10 06:26:10;;;;;;;25.50;13.70;;;;;;;4.17;89.51;100518.69;5010689;28;20030;-76
2022/01/10 06:28:37;;;;;;;23.88;13.68;;;;;;;4.18;89.06;100516.09;5019288;28;20381;-77
2022/01/10 06:31:06;;;;;;;24.58;13.63;;;;;;;4.18;89.16;100526.53;5010621;28;20518;-78
2022/01/10 06:33:39;;;;;;;21.13;13.02;;;;;;;4.24;89.36;100531.00;5010701;28;20092;-77
2022/01/10 06:36:08;;;;;;;22.83;13.25;;;;;;;4.21;88.95;100530.94;5006235;28;20500;-78
2022/01/10 06:38:35;;;;;;;23.27;13.38;;;;;;;4.21;89.46;100546.63;5014997;28;20112;-78
2022/01/10 06:41:01;;;;;;;21.48;12.23;;;;;;;4.20;89.43;100542.25;5011782;28;20444;-77
2022/01/10 06:43:28;;;;;;;24.38;13.75;;;;;;;4.18;89.30;100549.19;5014406;28;20038;-77
2022/01/10 06:45:54;;;;;;;25.73;13.18;;;;;;;4.20;89.21;100555.31;5014310;28;20108;-77
2022/01/10 06:48:19;;;;;;;23.30;12.85;;;;;;;4.24;89.22;100558.88;5015715;28;20036;-77
2022/01/10 06:50:47;;;;;;;21.73;14.05;;;;;;;4.24;89.70;100567.59;5014127;28;20575;-77
2022/01/10 06:53:17;;;;;;;25.92;13.82;;;;;;;4.29;89.45;100575.53;5014046;28;20423;-77
2022/01/10 06:55:44;;;;;;;23.02;13.05;;;;;;;4.33;89.35;100583.47;5020114;28;20040;-77
2022/01/10 06:58:09;;;;;;;23.25;13.55;;;;;;;4.29;88.84;100580.75;5014309;28;20119;-78
2022/01/10 07:00:36;;;;;;;21.63;11.98;;;;;;;4.34;89.19;100589.56;5014323;28;20034;-77
2022/01/10 07:03:03;;;;;;;27.95;13.63;;;;;;;4.27;89.41;100595.50;5024974;28;20503;-77
2022/01/10 07:05:32;;;;;;;27.65;13.82;;;;;;;4.29;89.23;100604.25;5013556;28;20032;-77
2022/01/10 07:08:05;;;;;;;21.60;12.95;;;;;;;4.29;89.04;100606.88;5013890;28;20506;-77
2022/01/10 07:10:36;;;;;;;22.20;12.93;;;;;;;4.29;89.21;100612.97;5012115;28;20030;-77
2022/01/10 07:13:01;;;;;;;25.95;14.05;;;;;;;4.31;88.87;100620.84;5013924;28;20496;-77
2022/01/10 07:15:27;;;;;;;23.67;13.15;;;;;;;4.42;89.49;100628.91;5022110;28;20520;-78
2022/01/10 07:17:56;;;;;;;19.92;13.07;;;;;;;4.43;88.95;100622.81;5013953;28;20030;-77
2022/01/10 07:20:23;;;;;;;21.90;13.77;;;;;;;4.49;89.06;100641.25;5013938;28;20042;-78
2022/01/10 07:22:48;;;;;;;22.45;12.48;;;;;;;4.43;88.85;100639.41;5014012;28;20038;-78
2022/01/10 07:25:14;;;;;;;22.98;13.30;;;;;;;4.44;89.18;100645.50;5013385;28;20038;-77
2022/01/10 07:27:40;;;;;;;25.02;12.75;;;;;;;4.35;88.43;100639.25;5013299;28;20022;-78
2022/01/10 07:30:06;;;;;;;20.80;12.20;;;;;;;4.34;88.28;100658.38;5013115;28;20034;-78
2022/01/10 07:32:31;;;;;;;24.98;13.70;;;;;;;4.36;88.82;100663.63;5012101;28;20034;-78
2022/01/10 07:34:57;;;;;;;20.67;11.63;;;;;;;4.41;88.50;100663.75;5012760;28;20092;-78
2022/01/10 07:37:23;;;;;;;25.45;13.65;;;;;;;4.35;88.55;100678.44;5014756;28;20049;-77
2022/01/10 07:39:48;;;;;;;25.83;13.65;;;;;;;4.36;88.38;100672.34;5013353;28;20205;-78
2022/01/10 07:42:14;;;;;;;22.10;13.93;;;;;;;4.45;88.40;100682.09;5014364;28;20136;-76
2022/01/10 07:44:48;;;;;;;21.75;13.88;;;;;;;4.39;88.54;100680.25;5019813;28;20036;-75
2022/01/10 07:47:13;;;;;;;22.33;13.70;;;;;;;4.39;88.40;100684.59;5014073;28;20479;-76
2022/01/10 07:49:38;;;;;;;26.17;13.90;;;;;;;4.41;88.69;100687.25;5014189;28;20080;-76
2022/01/10 07:52:04;;;;;;;24.88;14.05;;;;;;;4.42;88.43;100702.09;5011639;28;20033;-75
2022/01/10 07:54:29;;;;;;;23.73;14.32;;;;;;;4.43;88.43;100709.97;5013654;28;20619;-76
2022/01/10 07:56:55;;;;;;;20.08;12.68;;;;;;;4.41;88.07;100708.16;5010935;28;20033;-76
2022/01/10 07:59:22;;;;;;;21.52;12.98;;;;;;;4.37;88.50;100721.13;5009580;28;20044;-76
2022/01/10 08:01:48;;;;;;;27.00;14.98;;;;;;;4.35;89.03;100708.94;5009945;28;20441;-74
2022/01/10 08:04:14;;;;;;;23.40;13.50;;;;;;;4.42;88.59;100713.41;5013558;28;20046;-76
2022/01/10 08:06:39;;;;;;;22.50;13.48;;;;;;;4.41;88.58;100729.06;5013635;28;20044;-75
2022/01/10 08:09:06;;;;;;;22.20;13.85;;;;;;;4.43;88.61;100732.56;5012691;28;20034;-75
2022/01/10 08:11:31;;;;;;;23.95;12.90;;;;;;;4.48;88.68;100736.19;5010866;28;20473;-75
2022/01/10 08:13:57;;;;;;;25.38;13.77;;;;;;;4.45;88.68;100730.88;5010461;28;20061;-76
2022/01/10 08:16:22;;;;;;;24.23;14.77;;;;;;;4.34;88.48;100730.66;5020421;28;20044;-74
2022/01/10 08:18:48;;;;;;;23.92;13.88;;;;;;;4.29;89.07;100730.53;5012253;28;20034;-76
2022/01/10 08:21:13;;;;;;;23.15;14.00;;;;;;;4.22;88.81;100736.50;5012105;28;20037;-76
2022/01/10 08:23:38;;;;;;;24.10;13.88;;;;;;;4.18;89.26;100743.38;5012107;28;20037;-75
2022/01/10 08:26:07;;;;;;;29.23;13.38;;;;;;;4.11;89.72;100746.72;5022840;28;20590;-75
2022/01/10 08:28:33;;;;;;;22.98;13.80;;;;;;;4.10;90.12;100755.38;5009841;28;20105;-76
2022/01/10 08:30:58;;;;;;;25.38;14.52;;;;;;;4.07;89.95;100759.66;5020282;28;20129;-76
2022/01/10 08:33:23;;;;;;;25.77;14.35;;;;;;;4.07;90.58;100755.31;5008347;28;20113;-76
2022/01/10 08:35:51;;;;;;;27.85;15.15;;;;;;;4.04;90.64;100765.69;5012937;28;20096;-76
2022/01/10 08:38:17;;;;;;;26.90;15.13;;;;;;;4.03;91.08;100771.72;5013608;28;20045;-77
2022/01/10 08:40:42;;;;;;;33.45;16.90;;;;;;;4.04;91.00;100772.66;5013897;28;20038;-78
2022/01/10 08:43:10;;;;;;;31.17;15.00;;;;;;;4.06;91.05;100782.28;5012129;28;20033;-78
2022/01/10 08:45:39;;;;;;;24.75;14.10;;;;;;;4.10;91.41;100783.22;5011050;28;20070;-78
2022/01/10 08:48:06;;;;;;;23.63;13.80;;;;;;;4.15;91.03;100792.06;5012504;28;20058;-77
2022/01/10 08:50:33;;;;;;;28.95;14.77;;;;;;;4.13;91.10;100794.63;5013694;28;20072;-78
2022/01/10 08:52:59;;;;;;;25.15;14.20;;;;;;;4.19;91.70;100793.88;5013680;28;20037;-77
2022/01/10 08:55:24;;;;;;;37.33;18.00;;;;;;;4.22;91.29;100807.03;5013264;28;20053;-77
2022/01/10 08:57:50;;;;;;;32.85;16.38;;;;;;;4.27;90.97;100802.81;5013395;28;20056;-77
2022/01/10 09:00:15;;;;;;;28.70;15.05;;;;;;;4.30;91.08;100810.72;5011844;28;20140;-78
2022/01/10 09:02:40;;;;;;;27.58;15.35;;;;;;;4.28;90.86;100817.63;5013238;28;20120;-78
2022/01/10 09:05:08;;;;;;;25.92;14.38;;;;;;;4.35;90.59;100829.13;5010863;28;20041;-78
2022/01/10 09:07:33;;;;;;;23.20;15.20;;;;;;;4.42;90.41;100827.53;5010922;28;20417;-77
2022/01/10 09:09:58;;;;;;;29.77;16.13;;;;;;;4.43;90.14;100826.66;5010024;28;20046;-77
2022/01/10 09:12:24;;;;;;;30.60;15.38;;;;;;;4.41;90.13;100831.00;5012417;28;20053;-77
2022/01/10 09:14:49;;;;;;;29.15;15.23;;;;;;;4.49;90.34;100842.50;5011211;28;20461;-77
2022/01/10 09:17:15;;;;;;;25.58;14.68;;;;;;;4.48;90.14;100845.94;5012937;28;20040;-78
2022/01/10 09:19:40;;;;;;;31.67;15.73;;;;;;;4.47;89.97;100854.66;5013053;28;20041;-78
2022/01/10 09:22:06;;;;;;;30.67;16.58;;;;;;;4.48;90.19;100859.03;5008458;28;20036;-78
2022/01/10 09:24:31;;;;;;;27.50;14.90;;;;;;;4.48;90.20;100856.41;5011334;28;20069;-77
2022/01/10 09:26:56;;;;;;;21.55;13.73;;;;;;;4.54;90.67;100862.69;5011565;28;20084;-78
2022/01/10 09:29:23;;;;;;;26.67;14.57;;;;;;;4.56;90.46;100862.72;5012602;28;20037;-77
2022/01/10 09:31:49;;;;;;;26.70;14.07;;;;;;;4.69;90.53;100871.72;5011911;28;20084;-78
2022/01/10 09:34:14;;;;;;;24.88;14.20;;;;;;;4.79;88.99;100864.13;5012855;28;20069;-77
2022/01/10 09:36:40;;;;;;;31.48;15.90;;;;;;;4.81;89.07;100862.41;5009960;28;20034;-78
2022/01/10 09:39:05;;;;;;;21.80;12.95;;;;;;;4.96;88.91;100868.84;5009118;28;20500;-78
2022/01/10 09:41:31;;;;;;;24.73;13.27;;;;;;;5.05;87.90;100875.16;5010356;28;20104;-77
2022/01/10 09:44:01;;;;;;;24.73;12.60;;;;;;;5.15;87.99;100885.81;5010038;28;20034;-77
2022/01/10 09:46:27;;;;;;;25.50;12.77;;;;;;;5.26;87.18;100885.19;5010319;28;20033;-77
2022/01/10 09:48:53;;;;;;;23.15;13.75;;;;;;;5.26;86.81;100890.44;5025992;28;20037;-77
2022/01/10 09:51:21;;;;;;;21.15;12.57;;;;;;;5.44;87.26;100900.41;4994167;28;20038;-77
2022/01/10 09:53:48;;;;;;;19.67;12.70;;;;;;;5.61;86.57;100892.91;5011120;28;20120;-77
2022/01/10 09:56:13;;;;;;;26.60;15.35;;;;;;;5.67;86.42;100897.38;5012361;28;20496;-77
2022/01/10 09:58:38;;;;;;;28.17;15.02;;;;;;;5.88;86.88;100897.78;5009573;28;20137;-77
2022/01/10 10:01:04;;;;;;;21.23;11.90;;;;;;;5.95;85.15;100905.78;5010972;28;20057;-76
2022/01/10 10:03:30;;;;;;;20.42;11.13;;;;;;;6.03;84.69;100902.47;5011163;28;20784;-75
2022/01/10 10:05:56;;;;;;;18.58;13.07;;;;;;;6.13;84.62;100912.25;5007960;28;20041;-75
2022/01/10 10:08:24;;;;;;;23.05;12.07;;;;;;;6.22;84.06;100913.28;5011203;28;20544;-76
2022/01/10 10:10:50;;;;;;;23.48;10.50;;;;;;;6.18;82.87;100916.69;5010453;28;20480;-76
2022/01/10 10:13:17;;;;;;;21.95;9.70;;;;;;;6.18;83.62;100921.91;5007274;28;20045;-76
2022/01/10 10:15:44;;;;;;;16.55;8.73;;;;;;;6.26;83.14;100925.56;5009371;28;20084;-76
2022/01/10 10:18:17;;;;;;;23.63;9.90;;;;;;;6.23;82.14;100930.75;5006099;28;20505;-76
2022/01/10 10:20:44;;;;;;;23.23;9.48;;;;;;;6.29;81.52;100936.13;5019064;28;20451;-75
2022/01/10 10:23:16;;;;;;;18.42;9.45;;;;;;;6.31;81.57;100929.16;5009790;28;20042;-75
2022/01/10 10:25:49;;;;;;;22.77;10.02;;;;;;;6.25;81.77;100942.16;5007269;28;20109;-76
2022/01/10 10:28:15;;;;;;;18.67;10.68;;;;;;;6.25;82.13;100944.78;5010550;28;20129;-76
2022/01/10 10:30:40;;;;;;;20.05;10.10;;;;;;;6.20;81.49;100951.66;5009007;28;20538;-76
2022/01/10 10:33:23;;;;;;;20.33;10.50;;;;;;;6.12;81.75;100948.91;5009614;28;20029;-76
2022/01/10 10:36:07;;;;;;;21.25;9.88;;;;;;;6.09;82.43;100954.97;5009896;28;20120;-76
2022/01/10 10:38:33;;;;;;;15.88;9.27;;;;;;;6.18;81.96;100956.00;5008636;28;20222;-76
2022/01/10 10:41:04;;;;;;;20.65;9.02;;;;;;;6.23;81.26;100964.81;5010251;28;20034;-76
2022/01/10 10:43:35;;;;;;;20.92;10.48;;;;;;;6.23;81.84;100967.44;5011073;28;20034;-76
2022/01/10 10:46:05;;;;;;;22.58;11.02;;;;;;;6.21;82.53;100970.06;5006347;28;20117;-76
2022/01/10 10:48:34;;;;;;;20.17;11.32;;;;;;;6.28;82.43;100969.28;5008395;28;20027;-75
2022/01/10 10:51:01;;;;;;;23.63;10.45;;;;;;;6.30;82.65;100977.19;5008843;28;20558;-76
2022/01/10 10:53:28;;;;;;;19.20;10.82;;;;;;;6.29;82.55;100980.69;5008373;28;20053;-76
2022/01/10 10:55:57;;;;;;;20.85;10.20;;;;;;;6.28;82.89;100987.66;5010829;28;20038;-76
2022/01/10 10:58:23;;;;;;;29.63;13.10;;;;;;;6.17;83.10;100990.94;5019488;28;20058;-76
2022/01/10 11:00:49;;;;;;;23.17;11.70;;;;;;;6.08;83.36;100986.41;5010833;28;20077;-76
2022/01/10 11:03:16;;;;;;;25.55;12.18;;;;;;;6.04;83.80;100993.31;5011648;28;20061;-75
2022/01/10 11:05:44;;;;;;;26.58;12.57;;;;;;;5.99;83.97;100994.06;5020683;28;20045;-75
2022/01/10 11:08:10;;;;;;;22.77;12.38;;;;;;;5.95;84.35;101003.63;5011081;28;20095;-76
2022/01/10 11:10:37;;;;;;;22.13;12.02;;;;;;;5.86;85.05;101008.63;5011040;28;20038;-76
2022/01/10 11:13:04;;;;;;;24.80;11.30;;;;;;;5.82;85.96;101007.69;5010884;28;20048;-76
2022/01/10 11:15:31;;;;;;;19.02;11.27;;;;;;;5.96;85.34;101021.09;5010709;28;20087;-75
2022/01/10 11:18:01;;;;;;;23.05;11.82;;;;;;;6.10;85.57;101022.28;5010479;28;20030;-75
2022/01/10 11:20:28;;;;;;;22.83;11.90;;;;;;;6.24;84.63;101024.28;5007659;28;20073;-76
2022/01/10 11:22:57;;;;;;;20.77;11.02;;;;;;;6.43;83.74;101026.38;5010874;28;20046;-76
2022/01/10 11:25:33;;;;;;;20.88;10.65;;;;;;;6.59;83.56;101030.16;5014611;28;20042;-76
2022/01/10 11:28:08;;;;;;;29.15;14.23;;;;;;;6.61;83.44;101038.94;5012934;28;20037;-76
2022/01/10 11:30:44;;;;;;;22.27;11.15;;;;;;;6.70;82.33;101038.22;5010429;28;20165;-76